Statsraad Lehmkuhl — LDRG — position and weather

sailwx.info

Track history (hours):
 
Tides and Currents Weather Stations Pressure Air Temp Water Temp Dewpoint Dewpoint Depression Visibility Wind Speed Wind Dir Waves Ship Positions

Statsraad Lehmkuhl (Norway)

Ship's website: http://www.lehmkuhl.no/eng/index.cfm

Last reported at 2020-Jan-24 16:00 UTC. Time now 2020-Jan-25 03:32 UTC.
Position N 50°33' W 000°00'.

Length 85 m; draft 5.5 m.

Type: Sailing vessel. MMSI: 258113000.

Date/timePositionNaut miles runAvg speedWind from/ knotsBaromVisibWave heightAir tempDewpointWater temp
2020-Jan-24 16:00N 50°33' W 000°00'1511.3
2020-Jan-24 14:41N 50°37' E 000°23'1210.8
2020-Jan-24 13:33N 50°41' E 000°41'15 9.5
2020-Jan-24 12:01N 50°50' E 000°60'8 8.4
2020-Jan-24 11:00N 50°55' E 001°10'4 8.2
2020-Jan-24 10:30N 50°57' E 001°15'4 8.3
2020-Jan-24 10:00N 51°00' E 001°20'2711.0
2020-Jan-24 07:30N 51°20' E 001°50'611.6
2020-Jan-24 07:00N 51°25' E 001°55'34 9.8
2020-Jan-24 03:30N 51°54' E 002°23'8 8.1
2020-Jan-24 02:30N 52°01' E 002°30'16 8.0
2020-Jan-24 00:30N 52°17' E 002°38'9 9.4
2020-Jan-23 23:30N 52°26' E 002°38'1610.7
2020-Jan-23 22:01N 52°42' E 002°36'5710.3
2020-Jan-23 16:28N 53°38' E 002°57'10 8.3
2020-Jan-23 15:17N 53°48' E 002°60'24 8.4
2020-Jan-23 12:25N 54°12' E 003°01'255 9.3
2020-Jan-22 09:00N 58°25' E 004°07'5 9.6
2020-Jan-22 08:30N 58°29' E 004°10'42 9.3
2020-Jan-22 04:00N 59°09' E 004°34'5 9.5
2020-Jan-22 03:30N 59°14' E 004°37'26 7.5
2020-Jan-22 00:00N 59°34' E 005°10'26 7.5
2020-Jan-21 20:30N 59°60' E 005°21'24 3.2
2020-Jan-21 12:58N 60°24' E 005°16'0 0.0
2020-Jan-21 11:29N 60°24' E 005°16'0 0.0
2020-Jan-21 10:29N 60°24' E 005°16'0 0.0
2020-Jan-21 07:28N 60°24' E 005°16'0 0.0
2020-Jan-21 06:59N 60°24' E 005°16'0 0.0
2020-Jan-21 03:58N 60°24' E 005°16'0 0.0
2020-Jan-21 03:28N 60°24' E 005°16'0 0.0
2020-Jan-21 02:58N 60°24' E 005°16'0 0.0
2020-Jan-21 01:29N 60°24' E 005°16'0 0.0
2020-Jan-21 01:00N 60°24' E 005°16'0 0.0
2020-Jan-20 20:59N 60°24' E 005°16'0 0.0
2020-Jan-20 18:28N 60°24' E 005°16'0 0.0
2020-Jan-20 16:59N 60°24' E 005°16'0 0.0
2020-Jan-20 15:00N 60°24' E 005°16'0 0.0
2020-Jan-20 13:28N 60°24' E 005°16'0 0.0
2020-Jan-20 11:59N 60°24' E 005°16'0 0.0
2020-Jan-20 11:00N 60°24' E 005°16'0 0.0
2020-Jan-20 09:28N 60°24' E 005°16'0 0.0
2020-Jan-20 08:58N 60°24' E 005°16'2 0.8
2020-Jan-20 07:00N 60°24' E 005°19'0 0.0
2020-Jan-20 06:00N 60°24' E 005°19'0 0.0
2020-Jan-20 05:28N 60°24' E 005°19'0 0.0
2020-Jan-20 04:58N 60°24' E 005°19'0 0.0
2020-Jan-20 03:26N 60°24' E 005°19'0 0.0
2020-Jan-20 02:30N 60°24' E 005°19'0 0.0
2020-Jan-20 01:30N 60°24' E 005°19'0 0.0
2020-Jan-20 00:58N 60°24' E 005°19'0 0.0
2020-Jan-19 23:29N 60°24' E 005°19'0 0.0
2020-Jan-19 21:00N 60°24' E 005°19'0 0.0
2020-Jan-19 18:59N 60°24' E 005°19'0 0.0
2020-Jan-19 18:29N 60°24' E 005°19'0 0.0
2020-Jan-19 16:30N 60°24' E 005°19'0 0.0
2020-Jan-19 13:00N 60°24' E 005°19'0 0.0
2020-Jan-19 10:58N 60°24' E 005°19'0 0.0
2020-Jan-19 10:28N 60°24' E 005°19'0 0.0
2020-Jan-19 09:59N 60°24' E 005°19'0 0.0
2020-Jan-19 08:30N 60°24' E 005°19'0 0.0
2020-Jan-19 06:28N 60°24' E 005°19'0 0.0
2020-Jan-19 04:29N 60°24' E 005°19'0 0.0
2020-Jan-19 03:30N 60°24' E 005°19'0 0.0
2020-Jan-19 00:59N 60°24' E 005°19'0 0.0
2020-Jan-19 00:29N 60°24' E 005°19'0 0.0
2020-Jan-18 21:58N 60°24' E 005°19'0 0.0
2020-Jan-18 21:28N 60°24' E 005°19'0 0.0
2020-Jan-18 20:29N 60°24' E 005°19'0 0.0
2020-Jan-18 19:30N 60°24' E 005°19'0 0.1
2020-Jan-18 18:00N 60°24' E 005°19'0 0.0
2020-Jan-18 17:30N 60°24' E 005°19'0 0.0
2020-Jan-18 16:30N 60°24' E 005°19'0 0.0
2020-Jan-18 15:30N 60°24' E 005°19'0 0.0
2020-Jan-18 15:00N 60°24' E 005°19'0 0.0
2020-Jan-18 13:30N 60°24' E 005°19'1 0.3
2020-Jan-18 10:29N 60°23' E 005°18'0 0.0
2020-Jan-18 09:59N 60°23' E 005°18'0 0.0
2020-Jan-18 06:28N 60°23' E 005°18'0 0.0
2020-Jan-18 05:59N 60°23' E 005°18'0 0.0
2020-Jan-18 04:00N 60°23' E 005°18'0 0.0
2020-Jan-18 01:58N 60°23' E 005°18'0 0.0
2020-Jan-18 00:59N 60°23' E 005°18'0 0.0
2020-Jan-18 00:00N 60°23' E 005°18'0 0.0
2020-Jan-17 19:59N 60°23' E 005°18'0 0.0
2020-Jan-17 18:30N 60°23' E 005°18'0 0.0
2020-Jan-17 17:28N 60°23' E 005°18'0 0.0
2020-Jan-17 16:29N 60°23' E 005°18'0 0.0
2020-Jan-17 15:00N 60°23' E 005°18'0 0.0
2020-Jan-17 11:29N 60°23' E 005°18'0 0.0
2020-Jan-17 08:28N 60°23' E 005°18'0 0.0
2020-Jan-17 06:59N 60°23' E 005°18'0 0.0
2020-Jan-17 05:00N 60°23' E 005°18'0 0.0
2020-Jan-17 04:28N 60°23' E 005°18'0 0.0
2020-Jan-17 03:58N 60°23' E 005°18'0 0.0
2020-Jan-17 02:29N 60°23' E 005°18'0 0.0
2020-Jan-17 00:30N 60°23' E 005°18'0 0.0
2020-Jan-16 17:29N 60°23' E 005°18'0 0.0
2020-Jan-16 16:59N 60°23' E 005°18'0 0.0
2020-Jan-16 13:58N 60°23' E 005°18'0 0.0
2020-Jan-16 12:59N 60°23' E 005°18'0 0.0
2020-Jan-16 12:29N 60°23' E 005°18'0 0.0
2020-Jan-16 12:00N 60°23' E 005°18'0 0.0
2020-Jan-16 11:00N 60°23' E 005°18'0 0.0
2020-Jan-16 09:28N 60°23' E 005°18'0 0.0
2020-Jan-16 08:29N 60°23' E 005°18'0 0.0
2020-Jan-16 04:29N 60°23' E 005°18'0 0.0
2020-Jan-16 03:59N 60°23' E 005°18'0 0.0
2020-Jan-16 03:29N 60°23' E 005°18'0 0.0
2020-Jan-16 02:30N 60°23' E 005°18'0 0.0
2020-Jan-16 01:28N 60°23' E 005°18'0 0.0
2020-Jan-15 23:29N 60°23' E 005°18'0 0.0
2020-Jan-15 22:30N 60°23' E 005°18'0 0.0
2020-Jan-15 19:58N 60°23' E 005°18'0 0.0
2020-Jan-15 19:29N 60°23' E 005°18'0 0.0
2020-Jan-15 18:00N 60°23' E 005°18'0 0.0
2020-Jan-15 13:59N 60°23' E 005°18'0 0.0
2020-Jan-15 12:30N 60°23' E 005°18'0 0.0
2020-Jan-15 11:28N 60°23' E 005°18'0 0.0
2020-Jan-15 09:29N 60°23' E 005°18'0 0.0
2020-Jan-15 08:30N 60°23' E 005°18'0 0.0
2020-Jan-15 04:59N 60°23' E 005°18'0 0.0
2020-Jan-15 03:30N 60°23' E 005°18'0 0.0
2020-Jan-15 02:28N 60°23' E 005°18'0 0.0
2020-Jan-15 01:29N 60°23' E 005°18'0 0.0
2020-Jan-15 00:00N 60°23' E 005°18'0 0.0
2020-Jan-14 21:29N 60°23' E 005°18'0 0.0
2020-Jan-14 20:59N 60°23' E 005°18'0 0.0
2020-Jan-14 19:30N 60°23' E 005°18'0 0.0
2020-Jan-14 18:30N 60°23' E 005°18'0 0.0
2020-Jan-14 17:58N 60°23' E 005°18'0 0.0
2020-Jan-14 17:28N 60°23' E 005°18'0 0.0
2020-Jan-14 16:58N 60°23' E 005°18'  
Track history (hours):
 
Tides and Currents Weather Stations Pressure Air Temp Water Temp Dewpoint Dewpoint Depression Visibility Wind Speed Wind Dir Waves Ship Positions

Statsraad Lehmkuhl (Norway)

Ship's website: http://www.lehmkuhl.no/eng/index.cfm

Last reported at 2020-Jan-24 16:00 UTC. Time now 2020-Jan-25 03:32 UTC.
Position N 50°33' W 000°00'.

Length 85 m; draft 5.5 m.

Type: Sailing vessel. MMSI: 258113000.

Date/timePositionNaut miles runAvg speedWind from/ knotsBaromVisibWave heightAir tempDewpointWater temp
2020-Jan-24 16:00N 50°33' W 000°00'1511.3
2020-Jan-24 14:41N 50°37' E 000°23'1210.8
2020-Jan-24 13:33N 50°41' E 000°41'15 9.5
2020-Jan-24 12:01N 50°50' E 000°60'8 8.4
2020-Jan-24 11:00N 50°55' E 001°10'4 8.2
2020-Jan-24 10:30N 50°57' E 001°15'4 8.3
2020-Jan-24 10:00N 51°00' E 001°20'2711.0
2020-Jan-24 07:30N 51°20' E 001°50'611.6
2020-Jan-24 07:00N 51°25' E 001°55'34 9.8
2020-Jan-24 03:30N 51°54' E 002°23'8 8.1
2020-Jan-24 02:30N 52°01' E 002°30'16 8.0
2020-Jan-24 00:30N 52°17' E 002°38'9 9.4
2020-Jan-23 23:30N 52°26' E 002°38'1610.7
2020-Jan-23 22:01N 52°42' E 002°36'5710.3
2020-Jan-23 16:28N 53°38' E 002°57'10 8.3
2020-Jan-23 15:17N 53°48' E 002°60'24 8.4
2020-Jan-23 12:25N 54°12' E 003°01'255 9.3
2020-Jan-22 09:00N 58°25' E 004°07'5 9.6
2020-Jan-22 08:30N 58°29' E 004°10'42 9.3
2020-Jan-22 04:00N 59°09' E 004°34'5 9.5
2020-Jan-22 03:30N 59°14' E 004°37'26 7.5
2020-Jan-22 00:00N 59°34' E 005°10'26 7.5
2020-Jan-21 20:30N 59°60' E 005°21'24 3.2
2020-Jan-21 12:58N 60°24' E 005°16'0 0.0
2020-Jan-21 11:29N 60°24' E 005°16'0 0.0
2020-Jan-21 10:29N 60°24' E 005°16'0 0.0
2020-Jan-21 07:28N 60°24' E 005°16'0 0.0
2020-Jan-21 06:59N 60°24' E 005°16'0 0.0
2020-Jan-21 03:58N 60°24' E 005°16'0 0.0
2020-Jan-21 03:28N 60°24' E 005°16'0 0.0
2020-Jan-21 02:58N 60°24' E 005°16'0 0.0
2020-Jan-21 01:29N 60°24' E 005°16'0 0.0
2020-Jan-21 01:00N 60°24' E 005°16'0 0.0
2020-Jan-20 20:59N 60°24' E 005°16'0 0.0
2020-Jan-20 18:28N 60°24' E 005°16'0 0.0
2020-Jan-20 16:59N 60°24' E 005°16'0 0.0
2020-Jan-20 15:00N 60°24' E 005°16'0 0.0
2020-Jan-20 13:28N 60°24' E 005°16'0 0.0
2020-Jan-20 11:59N 60°24' E 005°16'0 0.0
2020-Jan-20 11:00N 60°24' E 005°16'0 0.0
2020-Jan-20 09:28N 60°24' E 005°16'0 0.0
2020-Jan-20 08:58N 60°24' E 005°16'2 0.8
2020-Jan-20 07:00N 60°24' E 005°19'0 0.0
2020-Jan-20 06:00N 60°24' E 005°19'0 0.0
2020-Jan-20 05:28N 60°24' E 005°19'0 0.0
2020-Jan-20 04:58N 60°24' E 005°19'0 0.0
2020-Jan-20 03:26N 60°24' E 005°19'0 0.0
2020-Jan-20 02:30N 60°24' E 005°19'0 0.0
2020-Jan-20 01:30N 60°24' E 005°19'0 0.0
2020-Jan-20 00:58N 60°24' E 005°19'0 0.0
2020-Jan-19 23:29N 60°24' E 005°19'0 0.0
2020-Jan-19 21:00N 60°24' E 005°19'0 0.0
2020-Jan-19 18:59N 60°24' E 005°19'0 0.0
2020-Jan-19 18:29N 60°24' E 005°19'0 0.0
2020-Jan-19 16:30N 60°24' E 005°19'0 0.0
2020-Jan-19 13:00N 60°24' E 005°19'0 0.0
2020-Jan-19 10:58N 60°24' E 005°19'0 0.0
2020-Jan-19 10:28N 60°24' E 005°19'0 0.0
2020-Jan-19 09:59N 60°24' E 005°19'0 0.0
2020-Jan-19 08:30N 60°24' E 005°19'0 0.0
2020-Jan-19 06:28N 60°24' E 005°19'0 0.0
2020-Jan-19 04:29N 60°24' E 005°19'0 0.0
2020-Jan-19 03:30N 60°24' E 005°19'0 0.0
2020-Jan-19 00:59N 60°24' E 005°19'0 0.0
2020-Jan-19 00:29N 60°24' E 005°19'0 0.0
2020-Jan-18 21:58N 60°24' E 005°19'0 0.0
2020-Jan-18 21:28N 60°24' E 005°19'0 0.0
2020-Jan-18 20:29N 60°24' E 005°19'0 0.0
2020-Jan-18 19:30N 60°24' E 005°19'0 0.1
2020-Jan-18 18:00N 60°24' E 005°19'0 0.0
2020-Jan-18 17:30N 60°24' E 005°19'0 0.0
2020-Jan-18 16:30N 60°24' E 005°19'0 0.0
2020-Jan-18 15:30N 60°24' E 005°19'0 0.0
2020-Jan-18 15:00N 60°24' E 005°19'0 0.0
2020-Jan-18 13:30N 60°24' E 005°19'1 0.3
2020-Jan-18 10:29N 60°23' E 005°18'0 0.0
2020-Jan-18 09:59N 60°23' E 005°18'0 0.0
2020-Jan-18 06:28N 60°23' E 005°18'0 0.0
2020-Jan-18 05:59N 60°23' E 005°18'0 0.0
2020-Jan-18 04:00N 60°23' E 005°18'0 0.0
2020-Jan-18 01:58N 60°23' E 005°18'0 0.0
2020-Jan-18 00:59N 60°23' E 005°18'0 0.0
2020-Jan-18 00:00N 60°23' E 005°18'0 0.0
2020-Jan-17 19:59N 60°23' E 005°18'0 0.0
2020-Jan-17 18:30N 60°23' E 005°18'0 0.0
2020-Jan-17 17:28N 60°23' E 005°18'0 0.0
2020-Jan-17 16:29N 60°23' E 005°18'0 0.0
2020-Jan-17 15:00N 60°23' E 005°18'0 0.0
2020-Jan-17 11:29N 60°23' E 005°18'0 0.0
2020-Jan-17 08:28N 60°23' E 005°18'0 0.0
2020-Jan-17 06:59N 60°23' E 005°18'0 0.0
2020-Jan-17 05:00N 60°23' E 005°18'0 0.0
2020-Jan-17 04:28N 60°23' E 005°18'0 0.0
2020-Jan-17 03:58N 60°23' E 005°18'0 0.0
2020-Jan-17 02:29N 60°23' E 005°18'0 0.0
2020-Jan-17 00:30N 60°23' E 005°18'0 0.0
2020-Jan-16 17:29N 60°23' E 005°18'0 0.0
2020-Jan-16 16:59N 60°23' E 005°18'0 0.0
2020-Jan-16 13:58N 60°23' E 005°18'0 0.0
2020-Jan-16 12:59N 60°23' E 005°18'0 0.0
2020-Jan-16 12:29N 60°23' E 005°18'0 0.0
2020-Jan-16 12:00N 60°23' E 005°18'0 0.0
2020-Jan-16 11:00N 60°23' E 005°18'0 0.0
2020-Jan-16 09:28N 60°23' E 005°18'0 0.0
2020-Jan-16 08:29N 60°23' E 005°18'0 0.0
2020-Jan-16 04:29N 60°23' E 005°18'0 0.0
2020-Jan-16 03:59N 60°23' E 005°18'0 0.0
2020-Jan-16 03:29N 60°23' E 005°18'0 0.0
2020-Jan-16 02:30N 60°23' E 005°18'0 0.0
2020-Jan-16 01:28N 60°23' E 005°18'0 0.0
2020-Jan-15 23:29N 60°23' E 005°18'0 0.0
2020-Jan-15 22:30N 60°23' E 005°18'0 0.0
2020-Jan-15 19:58N 60°23' E 005°18'0 0.0
2020-Jan-15 19:29N 60°23' E 005°18'0 0.0
2020-Jan-15 18:00N 60°23' E 005°18'0 0.0
2020-Jan-15 13:59N 60°23' E 005°18'0 0.0
2020-Jan-15 12:30N 60°23' E 005°18'0 0.0
2020-Jan-15 11:28N 60°23' E 005°18'0 0.0
2020-Jan-15 09:29N 60°23' E 005°18'0 0.0
2020-Jan-15 08:30N 60°23' E 005°18'0 0.0
2020-Jan-15 04:59N 60°23' E 005°18'0 0.0
2020-Jan-15 03:30N 60°23' E 005°18'0 0.0
2020-Jan-15 02:28N 60°23' E 005°18'0 0.0
2020-Jan-15 01:29N 60°23' E 005°18'0 0.0
2020-Jan-15 00:00N 60°23' E 005°18'0 0.0
2020-Jan-14 21:29N 60°23' E 005°18'0 0.0
2020-Jan-14 20:59N 60°23' E 005°18'0 0.0
2020-Jan-14 19:30N 60°23' E 005°18'0 0.0
2020-Jan-14 18:30N 60°23' E 005°18'0 0.0
2020-Jan-14 17:58N 60°23' E 005°18'0 0.0
2020-Jan-14 17:28N 60°23' E 005°18'0 0.0
2020-Jan-14 16:58N 60°23' E 005°18'  

Dump ship's entire track history